createdAt,value
2019-03-24T00:01:17.226Z,74.15
2019-03-24T00:03:47.674Z,74.04
2019-03-24T00:06:18.093Z,74.32
2019-03-24T00:08:48.540Z,74.06
2019-03-24T00:11:18.956Z,73.52
2019-03-24T00:13:49.408Z,73.46
2019-03-24T00:16:19.827Z,73.52
2019-03-24T00:18:50.261Z,73.62
2019-03-24T00:21:20.687Z,72.93
2019-03-24T00:23:51.132Z,73.32
2019-03-24T00:26:23.469Z,74.22
2019-03-24T00:28:53.698Z,73.83
2019-03-24T00:31:24.098Z,74.06
2019-03-24T00:33:54.547Z,73.62
2019-03-24T00:36:24.965Z,73.79
2019-03-24T00:38:55.391Z,73.21
2019-03-24T00:41:25.809Z,74.30
2019-03-24T00:43:57.202Z,74.73
2019-03-24T00:46:27.607Z,74.21
2019-03-24T00:48:58.059Z,74.41
2019-03-24T00:51:28.461Z,74.41
2019-03-24T00:53:58.904Z,75.14
2019-03-24T00:56:29.300Z,75.12
2019-03-24T00:58:59.775Z,75.07
2019-03-24T01:01:30.177Z,74.58
2019-03-24T01:04:00.626Z,74.59
2019-03-24T01:06:31.017Z,74.72
2019-03-24T01:09:01.402Z,75.48
2019-03-24T01:11:31.740Z,75.45
2019-03-24T01:14:02.179Z,75.59
2019-03-24T01:16:32.587Z,75.44
2019-03-24T01:19:02.941Z,75.63
2019-03-24T01:21:33.326Z,75.56
2019-03-24T01:24:03.888Z,75.41
2019-03-24T01:26:34.267Z,75.80
2019-03-24T01:29:04.695Z,75.96
2019-03-24T01:31:35.066Z,76.15
2019-03-24T01:34:05.587Z,75.95
2019-03-24T01:36:35.989Z,75.93
2019-03-24T01:39:07.744Z,75.89
2019-03-24T01:41:38.159Z,75.69
2019-03-24T01:44:09.675Z,75.88
2019-03-24T01:46:40.068Z,76.09
2019-03-24T01:49:10.484Z,75.97
2019-03-24T01:51:40.866Z,75.83
2019-03-24T01:54:11.310Z,74.94
2019-03-24T01:56:41.708Z,75.69
2019-03-24T01:59:12.174Z,74.76
2019-03-24T02:01:42.490Z,74.76
2019-03-24T02:04:12.885Z,74.32
2019-03-24T02:06:43.285Z,74.44
2019-03-24T02:09:13.778Z,74.48
2019-03-24T02:11:44.193Z,75.16
2019-03-24T02:14:14.649Z,74.25
2019-03-24T02:16:45.050Z,73.95
2019-03-24T02:19:15.524Z,74.17
2019-03-24T02:21:45.930Z,73.75
2019-03-24T02:24:16.398Z,73.32
2019-03-24T02:26:46.791Z,73.46
2019-03-24T02:29:17.248Z,74.00
2019-03-24T02:31:47.660Z,73.20
2019-03-24T02:34:18.090Z,73.70
2019-03-24T02:36:48.492Z,73.64
2019-03-24T02:39:18.910Z,73.72
2019-03-24T02:41:49.296Z,74.32
2019-03-24T02:44:22.375Z,73.87
2019-03-24T02:46:52.777Z,73.53
2019-03-24T02:49:23.216Z,73.73
2019-03-24T02:51:53.626Z,73.73
2019-03-24T02:54:24.090Z,73.80
2019-03-24T02:56:54.485Z,73.59
2019-03-24T02:59:24.930Z,73.79
2019-03-24T03:01:55.337Z,73.66
2019-03-24T03:04:25.785Z,73.51
2019-03-24T03:06:56.170Z,73.80
2019-03-24T03:09:26.628Z,74.47
2019-03-24T03:11:57.033Z,74.28
2019-03-24T03:14:27.486Z,74.43
2019-03-24T03:16:57.895Z,74.44
2019-03-24T03:19:28.339Z,74.44
2019-03-24T03:21:58.804Z,74.54
2019-03-24T03:24:29.278Z,74.69
2019-03-24T03:26:59.675Z,74.72
2019-03-24T03:29:30.125Z,74.34
2019-03-24T03:32:00.552Z,74.14
2019-03-24T03:34:30.982Z,74.99
2019-03-24T03:37:01.411Z,74.44
2019-03-24T03:39:31.826Z,74.12
2019-03-24T03:42:02.238Z,73.96
2019-03-24T03:44:33.665Z,73.97
2019-03-24T03:47:04.064Z,74.09
2019-03-24T03:49:34.440Z,74.55
2019-03-24T03:52:04.864Z,74.20
2019-03-24T03:54:35.296Z,74.66
2019-03-24T03:57:05.709Z,75.29
2019-03-24T03:59:36.161Z,75.37
2019-03-24T04:02:06.558Z,75.13
2019-03-24T04:04:36.994Z,74.28
2019-03-24T04:07:07.409Z,74.68
2019-03-24T04:09:37.875Z,74.67
2019-03-24T04:12:08.272Z,75.15
2019-03-24T04:14:39.220Z,74.61
2019-03-24T04:17:09.635Z,74.11
2019-03-24T04:19:40.090Z,74.18
2019-03-24T04:22:10.514Z,74.51
2019-03-24T04:24:40.979Z,74.16
2019-03-24T04:27:11.385Z,73.67
2019-03-24T04:29:41.883Z,73.71
2019-03-24T04:32:12.278Z,73.42
2019-03-24T04:34:42.721Z,72.88
2019-03-24T04:37:13.100Z,73.53
2019-03-24T04:39:43.580Z,73.36
2019-03-24T04:42:13.981Z,72.41
2019-03-24T04:44:45.429Z,72.84
2019-03-24T04:47:16.891Z,72.76
2019-03-24T04:49:47.610Z,72.71
2019-03-24T04:52:18.021Z,72.51
2019-03-24T04:54:48.477Z,73.08
2019-03-24T04:57:18.872Z,72.75
2019-03-24T04:59:49.331Z,72.97
2019-03-24T05:02:19.719Z,71.88
2019-03-24T05:04:50.162Z,72.18
2019-03-24T05:07:21.165Z,71.71
2019-03-24T05:09:51.606Z,71.10
2019-03-24T05:12:22.009Z,70.89
2019-03-24T05:14:52.439Z,70.86
2019-03-24T05:17:26.924Z,71.71
2019-03-24T05:19:54.988Z,70.83
2019-03-24T05:22:25.407Z,70.77
2019-03-24T05:24:55.850Z,70.23
2019-03-24T05:27:26.201Z,70.08
2019-03-24T05:29:56.679Z,69.86
2019-03-24T05:32:27.072Z,70.81
2019-03-24T05:34:57.530Z,71.38
2019-03-24T05:37:27.918Z,70.97
2019-03-24T05:39:58.371Z,70.66
2019-03-24T05:42:28.709Z,70.55
2019-03-24T05:44:59.295Z,70.26
2019-03-24T05:47:36.816Z,68.78
2019-03-24T05:50:01.724Z,68.80
2019-03-24T05:52:32.118Z,69.12
2019-03-24T05:55:02.474Z,68.13
2019-03-24T05:57:32.886Z,66.70
2019-03-24T06:00:04.717Z,67.20
2019-03-24T06:02:35.028Z,66.29
2019-03-24T06:05:06.167Z,66.16
2019-03-24T06:07:36.567Z,67.92
2019-03-24T06:10:07.706Z,66.62
2019-03-24T06:12:38.095Z,66.96
2019-03-24T06:15:11.571Z,65.92
2019-03-24T06:17:47.813Z,65.89
2019-03-24T06:20:14.044Z,65.61
2019-03-24T06:22:44.394Z,64.95
2019-03-24T06:25:14.850Z,64.35
2019-03-24T06:27:45.261Z,64.29
2019-03-24T06:30:15.850Z,64.18
2019-03-24T06:32:46.273Z,63.87
2019-03-24T06:35:16.742Z,61.92
2019-03-24T06:37:47.168Z,60.96
2019-03-24T06:40:19.838Z,60.54
2019-03-24T06:42:50.445Z,60.23
2019-03-24T06:45:28.366Z,61.02
2019-03-24T06:47:57.859Z,59.81
2019-03-24T06:50:25.930Z,58.20
2019-03-24T06:52:56.236Z,57.75
2019-03-24T06:55:26.613Z,57.37
2019-03-24T06:57:57.022Z,57.34
2019-03-24T07:00:27.532Z,56.79
2019-03-24T07:02:57.847Z,56.90
2019-03-24T07:05:28.176Z,56.03
2019-03-24T07:07:58.463Z,56.72
2019-03-24T07:10:28.782Z,54.22
2019-03-24T07:12:59.092Z,56.42
2019-03-24T07:15:29.445Z,55.61
2019-03-24T07:18:08.069Z,55.05
2019-03-24T07:20:31.947Z,53.57
2019-03-24T07:23:02.354Z,53.10
2019-03-24T07:25:32.707Z,51.49
2019-03-24T07:28:03.017Z,53.46
2019-03-24T07:30:33.423Z,54.19
2019-03-24T07:33:03.828Z,51.29
2019-03-24T07:35:34.165Z,51.32
2019-03-24T07:38:04.592Z,51.47
2019-03-24T07:40:34.913Z,50.54
2019-03-24T07:43:05.233Z,49.50
2019-03-24T07:45:36.701Z,48.54
2019-03-24T07:48:06.966Z,46.96
2019-03-24T07:50:37.415Z,47.54
2019-03-24T07:53:07.827Z,48.47
2019-03-24T07:55:38.160Z,45.71
2019-03-24T07:58:08.466Z,47.27
2019-03-24T08:00:39.234Z,46.31
2019-03-24T08:03:09.536Z,47.61
2019-03-24T08:05:39.885Z,48.47
2019-03-24T08:08:10.182Z,46.13
2019-03-24T08:10:40.557Z,47.29
2019-03-24T08:13:10.879Z,46.09
2019-03-24T08:15:41.305Z,45.90
2019-03-24T08:18:11.673Z,47.18
2019-03-24T08:20:42.039Z,45.44
2019-03-24T08:23:12.328Z,45.24
2019-03-24T08:25:42.742Z,45.18
2019-03-24T08:28:13.044Z,44.59
2019-03-24T08:30:43.328Z,44.89
2019-03-24T08:33:13.683Z,44.83
2019-03-24T08:35:44.160Z,43.77
2019-03-24T08:38:14.533Z,44.80
2019-03-24T08:40:44.992Z,43.35
2019-03-24T08:43:15.411Z,44.10
2019-03-24T08:45:47.542Z,43.95
2019-03-24T08:48:17.859Z,41.58
2019-03-24T08:50:48.210Z,42.59
2019-03-24T08:53:18.496Z,42.52
2019-03-24T08:55:48.896Z,42.59
2019-03-24T08:58:19.200Z,41.93
2019-03-24T09:00:49.580Z,41.40
2019-03-24T09:03:19.896Z,41.76
2019-03-24T09:05:50.246Z,41.85
2019-03-24T09:08:20.583Z,40.35
2019-03-24T09:10:51.021Z,42.81
2019-03-24T09:13:21.352Z,44.30
2019-03-24T09:15:51.708Z,43.74
2019-03-24T09:18:22.042Z,41.62
2019-03-24T09:20:52.444Z,43.70
2019-03-24T09:23:22.757Z,44.43
2019-03-24T09:25:53.168Z,42.35
2019-03-24T09:28:23.500Z,42.01
2019-03-24T09:30:53.863Z,42.49
2019-03-24T09:33:24.198Z,41.92
2019-03-24T09:35:54.541Z,41.91
2019-03-24T09:38:24.874Z,42.51
2019-03-24T09:40:55.214Z,42.03
2019-03-24T09:43:25.552Z,42.46
2019-03-24T09:45:57.581Z,41.96
2019-03-24T09:48:27.890Z,41.91
2019-03-24T09:50:58.233Z,41.74
2019-03-24T09:53:28.514Z,41.87
2019-03-24T09:55:58.872Z,40.64
2019-03-24T09:58:29.151Z,40.43
2019-03-24T10:00:59.478Z,40.35
2019-03-24T10:03:29.799Z,40.70
2019-03-24T10:06:00.146Z,40.53
2019-03-24T10:08:30.553Z,41.04
2019-03-24T10:11:00.863Z,39.41
2019-03-24T10:13:31.088Z,38.49
2019-03-24T10:16:01.565Z,39.30
2019-03-24T10:18:31.995Z,38.38
2019-03-24T10:21:02.344Z,39.38
2019-03-24T10:23:32.743Z,39.50
2019-03-24T10:26:03.133Z,38.95
2019-03-24T10:28:33.471Z,38.84
2019-03-24T10:31:03.820Z,39.74
2019-03-24T10:33:34.166Z,38.28
2019-03-24T10:36:04.584Z,37.86
2019-03-24T10:38:34.914Z,38.16
2019-03-24T10:41:05.290Z,37.34
2019-03-24T10:43:35.775Z,37.15
2019-03-24T10:46:07.433Z,37.25
2019-03-24T10:48:37.773Z,38.52
2019-03-24T10:51:08.178Z,38.78
2019-03-24T10:53:38.535Z,37.83
2019-03-24T10:56:08.937Z,37.69
2019-03-24T10:58:39.291Z,38.26
2019-03-24T11:01:09.670Z,37.40
2019-03-24T11:03:39.985Z,37.49
2019-03-24T11:06:10.468Z,38.59
2019-03-24T11:08:40.898Z,39.14
2019-03-24T11:11:11.338Z,39.42
2019-03-24T11:13:41.790Z,38.30
2019-03-24T11:16:12.252Z,37.46
2019-03-24T11:18:42.670Z,37.41
2019-03-24T11:21:13.046Z,38.06
2019-03-24T11:23:43.446Z,39.30
2019-03-24T11:26:13.914Z,38.60
2019-03-24T11:28:44.210Z,40.17
2019-03-24T11:31:14.696Z,38.20
2019-03-24T11:33:45.105Z,39.53
2019-03-24T11:36:15.506Z,39.89
2019-03-24T11:38:45.803Z,39.74
2019-03-24T11:41:16.291Z,40.01
2019-03-24T11:43:46.651Z,39.31
2019-03-24T11:46:18.161Z,38.16
2019-03-24T11:48:48.646Z,37.75
2019-03-24T11:51:19.109Z,36.55
2019-03-24T11:53:49.418Z,37.64
2019-03-24T11:56:19.866Z,38.52
2019-03-24T11:58:50.245Z,39.08
2019-03-24T12:01:20.777Z,39.56
2019-03-24T12:03:51.062Z,38.53
2019-03-24T12:06:21.410Z,38.85
2019-03-24T12:08:51.765Z,37.79
2019-03-24T12:11:22.216Z,38.12
2019-03-24T12:13:52.537Z,38.12
2019-03-24T12:16:24.323Z,35.79
2019-03-24T12:18:54.712Z,35.49
2019-03-24T12:21:25.184Z,34.96
2019-03-24T12:23:55.628Z,34.76
2019-03-24T12:26:26.148Z,36.09
2019-03-24T12:28:56.590Z,36.62
2019-03-24T12:31:27.078Z,36.20
2019-03-24T12:33:57.473Z,36.31
2019-03-24T12:36:27.923Z,36.70
2019-03-24T12:38:58.449Z,36.43
2019-03-24T12:41:28.895Z,36.82
2019-03-24T12:43:59.329Z,37.09
2019-03-24T12:46:30.751Z,37.85
2019-03-24T12:49:01.258Z,36.94
2019-03-24T12:51:31.724Z,36.24
2019-03-24T12:54:02.302Z,36.42
2019-03-24T12:56:33.094Z,37.05
2019-03-24T12:59:03.408Z,36.72
2019-03-24T13:01:33.931Z,37.17
2019-03-24T13:04:04.336Z,37.44
2019-03-24T13:06:34.801Z,37.63
2019-03-24T13:09:07.434Z,38.40
2019-03-24T13:11:37.806Z,38.20
2019-03-24T13:14:08.126Z,38.56
2019-03-24T13:16:38.547Z,39.09
2019-03-24T13:19:08.985Z,39.76
2019-03-24T13:21:40.618Z,38.17
2019-03-24T13:24:11.073Z,38.50
2019-03-24T13:26:41.719Z,39.19
2019-03-24T13:29:12.558Z,38.74
2019-03-24T13:31:42.956Z,39.57
2019-03-24T13:34:13.384Z,38.96
2019-03-24T13:36:43.848Z,38.93
2019-03-24T13:39:14.284Z,39.12
2019-03-24T13:41:44.768Z,38.77
2019-03-24T13:44:15.244Z,38.19
2019-03-24T13:46:46.838Z,39.12
2019-03-24T13:49:20.078Z,39.17
2019-03-24T13:51:50.577Z,38.93
2019-03-24T13:54:21.023Z,39.60
2019-03-24T13:56:51.534Z,40.27
2019-03-24T13:59:21.959Z,41.06
2019-03-24T14:01:52.408Z,40.29
2019-03-24T14:04:22.843Z,41.01
2019-03-24T14:06:53.278Z,41.13
2019-03-24T14:09:23.694Z,42.21
2019-03-24T14:11:54.057Z,40.83
2019-03-24T14:14:24.463Z,41.32
2019-03-24T14:16:54.963Z,41.92
2019-03-24T14:19:25.406Z,41.24
2019-03-24T14:21:57.011Z,41.50
2019-03-24T14:24:30.318Z,42.57
2019-03-24T14:27:05.208Z,43.01
2019-03-24T14:29:36.268Z,42.44
2019-03-24T14:32:06.752Z,41.80
2019-03-24T14:34:37.152Z,41.84
2019-03-24T14:37:07.915Z,42.80
2019-03-24T14:39:38.314Z,42.59
2019-03-24T14:42:08.780Z,43.27
2019-03-24T14:44:39.199Z,43.68
2019-03-24T14:47:09.913Z,43.77
2019-03-24T14:49:40.343Z,44.15
2019-03-24T14:52:10.760Z,43.95
2019-03-24T14:54:41.164Z,44.23
2019-03-24T14:57:11.680Z,44.60
2019-03-24T14:59:42.121Z,44.13
2019-03-24T15:02:12.581Z,44.43
2019-03-24T15:04:43.016Z,44.04
2019-03-24T15:07:13.471Z,44.90
2019-03-24T15:09:43.914Z,44.56
2019-03-24T15:12:14.392Z,44.96
2019-03-24T15:14:44.810Z,44.93
2019-03-24T15:17:15.274Z,45.00
2019-03-24T15:19:45.678Z,44.99
2019-03-24T15:22:16.156Z,45.00
2019-03-24T15:24:46.594Z,46.13
2019-03-24T15:27:17.135Z,45.09
2019-03-24T15:29:47.643Z,45.72
2019-03-24T15:32:18.134Z,45.78
2019-03-24T15:34:48.554Z,45.63
2019-03-24T15:37:19.088Z,45.83
2019-03-24T15:39:49.521Z,45.62
2019-03-24T15:42:20.019Z,45.77
2019-03-24T15:44:50.589Z,45.81
2019-03-24T15:47:22.235Z,45.85
2019-03-24T15:49:52.683Z,46.68
2019-03-24T15:52:23.140Z,46.08
2019-03-24T15:54:53.587Z,46.29
2019-03-24T15:57:24.148Z,46.07
2019-03-24T15:59:54.638Z,46.36
2019-03-24T16:02:25.211Z,46.75
2019-03-24T16:04:55.655Z,46.22
2019-03-24T16:07:26.164Z,47.10
2019-03-24T16:09:56.666Z,46.63
2019-03-24T16:12:27.178Z,46.52
2019-03-24T16:14:57.579Z,46.83
2019-03-24T16:17:28.085Z,46.88
2019-03-24T16:19:59.955Z,46.54
2019-03-24T16:22:30.424Z,47.41
2019-03-24T16:25:00.924Z,48.37
2019-03-24T16:27:31.538Z,47.83
2019-03-24T16:30:01.990Z,48.67
2019-03-24T16:32:33.001Z,48.70
2019-03-24T16:35:03.433Z,48.07
2019-03-24T16:37:34.334Z,48.02
2019-03-24T16:40:11.277Z,48.11
2019-03-24T16:43:03.890Z,48.41
2019-03-24T16:45:39.992Z,48.12
2019-03-24T16:48:36.724Z,48.08
2019-03-24T16:51:03.254Z,48.62
2019-03-24T16:53:33.885Z,48.37
2019-03-24T16:56:04.330Z,47.97
2019-03-24T16:58:34.803Z,48.54
2019-03-24T17:01:05.264Z,48.56
2019-03-24T17:03:35.766Z,48.59
2019-03-24T17:06:06.282Z,48.75
2019-03-24T17:08:36.801Z,49.22
2019-03-24T17:11:07.233Z,49.18
2019-03-24T17:13:37.727Z,49.07
2019-03-24T17:16:08.304Z,49.45
2019-03-24T17:18:38.856Z,48.62
2019-03-24T17:21:09.345Z,49.37
2019-03-24T17:23:39.823Z,49.44
2019-03-24T17:26:10.256Z,49.43
2019-03-24T17:28:40.800Z,49.87
2019-03-24T17:31:11.227Z,49.98
2019-03-24T17:33:41.707Z,49.81
2019-03-24T17:36:12.139Z,50.11
2019-03-24T17:38:42.611Z,50.15
2019-03-24T17:41:13.075Z,50.35
2019-03-24T17:43:43.541Z,50.66
2019-03-24T17:46:14.005Z,51.15
2019-03-24T17:48:46.411Z,51.34
2019-03-24T17:51:16.845Z,51.58
2019-03-24T17:53:47.365Z,51.08
2019-03-24T17:56:17.822Z,51.26
2019-03-24T17:58:48.324Z,51.06
2019-03-24T18:01:18.791Z,50.91
2019-03-24T18:03:49.314Z,50.90
2019-03-24T18:06:19.735Z,50.41
2019-03-24T18:08:50.242Z,51.21
2019-03-24T18:11:20.704Z,50.33
2019-03-24T18:13:51.181Z,49.97
2019-03-24T18:16:21.951Z,50.20
2019-03-24T18:18:52.437Z,50.02
2019-03-24T18:21:23.057Z,49.98
2019-03-24T18:23:53.543Z,49.42
2019-03-24T18:26:25.909Z,49.79
2019-03-24T18:28:56.199Z,49.48
2019-03-24T18:31:26.655Z,49.51
2019-03-24T18:33:57.147Z,49.31
2019-03-24T18:36:27.579Z,50.04
2019-03-24T18:38:58.023Z,49.13
2019-03-24T18:41:28.481Z,49.08
2019-03-24T18:43:58.944Z,49.14
2019-03-24T18:46:29.371Z,50.08
2019-03-24T18:49:00.828Z,49.30
2019-03-24T18:51:31.263Z,48.82
2019-03-24T18:54:01.735Z,49.11
2019-03-24T18:56:32.155Z,48.86
2019-03-24T18:59:02.683Z,49.08
2019-03-24T19:01:33.156Z,48.38
2019-03-24T19:04:03.701Z,49.63
2019-03-24T19:06:34.120Z,49.46
2019-03-24T19:09:07.756Z,49.80
2019-03-24T19:11:38.211Z,48.63
2019-03-24T19:14:08.729Z,48.55
2019-03-24T19:16:39.181Z,48.97
2019-03-24T19:19:09.640Z,47.76
2019-03-24T19:21:40.096Z,48.14
2019-03-24T19:24:10.578Z,47.31
2019-03-24T19:26:41.028Z,46.68
2019-03-24T19:29:11.535Z,46.36
2019-03-24T19:31:42.185Z,45.77
2019-03-24T19:34:12.624Z,46.37
2019-03-24T19:36:43.401Z,46.40
2019-03-24T19:39:13.875Z,45.38
2019-03-24T19:41:44.330Z,45.55
2019-03-24T19:44:14.825Z,45.59
2019-03-24T19:46:45.246Z,45.97
2019-03-24T19:49:16.692Z,45.65
2019-03-24T19:51:47.134Z,45.69
2019-03-24T19:54:17.603Z,46.89
2019-03-24T19:56:48.041Z,46.98
2019-03-24T19:59:18.523Z,47.04
2019-03-24T20:01:48.924Z,46.07
2019-03-24T20:04:19.412Z,46.47
2019-03-24T20:06:49.842Z,46.25
2019-03-24T20:09:20.299Z,46.36
2019-03-24T20:11:50.905Z,46.14
2019-03-24T20:14:23.905Z,45.74
2019-03-24T20:16:54.924Z,45.60
2019-03-24T20:19:25.408Z,45.38
2019-03-24T20:21:55.835Z,45.41
2019-03-24T20:24:26.275Z,45.21
2019-03-24T20:26:56.684Z,45.86
2019-03-24T20:29:27.146Z,46.08
2019-03-24T20:31:57.506Z,45.93
2019-03-24T20:34:27.945Z,45.84
2019-03-24T20:36:58.311Z,46.34
2019-03-24T20:39:28.905Z,46.60
2019-03-24T20:41:59.336Z,46.65
2019-03-24T20:44:29.886Z,46.64
2019-03-24T20:47:00.339Z,46.30
2019-03-24T20:49:30.933Z,46.45
2019-03-24T20:52:01.341Z,47.44
2019-03-24T20:54:31.840Z,47.04
2019-03-24T20:57:02.236Z,47.04
2019-03-24T20:59:32.719Z,47.72
2019-03-24T21:02:03.164Z,47.61
2019-03-24T21:04:33.662Z,48.26
2019-03-24T21:07:04.062Z,48.13
2019-03-24T21:09:34.550Z,48.89
2019-03-24T21:12:05.061Z,48.84
2019-03-24T21:14:35.534Z,49.01
2019-03-24T21:17:06.052Z,48.86
2019-03-24T21:19:36.502Z,49.14
2019-03-24T21:22:06.943Z,49.48
2019-03-24T21:24:37.437Z,50.45
2019-03-24T21:27:07.978Z,49.97
2019-03-24T21:29:38.471Z,50.28
2019-03-24T21:32:08.912Z,50.51
2019-03-24T21:34:39.393Z,50.02
2019-03-24T21:37:09.831Z,50.37
2019-03-24T21:39:40.283Z,50.15
2019-03-24T21:42:10.728Z,50.62
2019-03-24T21:44:41.192Z,49.96
2019-03-24T21:47:11.625Z,50.59
2019-03-24T21:49:43.031Z,51.17
2019-03-24T21:52:13.467Z,51.35
2019-03-24T21:54:43.932Z,51.66
2019-03-24T21:57:15.828Z,52.11
2019-03-24T21:59:46.351Z,52.43
2019-03-24T22:02:16.861Z,52.73
2019-03-24T22:04:47.442Z,52.80
2019-03-24T22:07:17.852Z,52.24
2019-03-24T22:09:48.415Z,52.07
2019-03-24T22:12:24.192Z,51.77
2019-03-24T22:14:54.657Z,52.51
2019-03-24T22:17:25.052Z,53.35
2019-03-24T22:19:55.573Z,51.87
2019-03-24T22:22:26.056Z,53.05
2019-03-24T22:24:56.543Z,53.18
2019-03-24T22:27:27.028Z,53.40
2019-03-24T22:29:57.565Z,53.33
2019-03-24T22:32:28.013Z,53.88
2019-03-24T22:34:58.478Z,53.91
2019-03-24T22:37:28.871Z,53.45
2019-03-24T22:39:59.345Z,54.38
2019-03-24T22:42:29.819Z,54.38
2019-03-24T22:45:00.327Z,54.90
2019-03-24T22:47:30.760Z,55.39
2019-03-24T22:50:02.440Z,55.31
2019-03-24T22:52:32.843Z,55.36
2019-03-24T22:55:04.234Z,56.09
2019-03-24T22:57:35.676Z,55.54
2019-03-24T23:00:15.548Z,55.62
2019-03-24T23:02:46.038Z,55.25
2019-03-24T23:05:16.519Z,55.94
2019-03-24T23:07:46.917Z,56.45
2019-03-24T23:10:17.352Z,57.01
2019-03-24T23:12:47.770Z,57.35
2019-03-24T23:15:18.223Z,57.72
2019-03-24T23:17:48.727Z,57.43
2019-03-24T23:20:19.166Z,57.48
2019-03-24T23:22:49.589Z,58.92
2019-03-24T23:25:20.052Z,58.53
2019-03-24T23:27:50.462Z,58.27
2019-03-24T23:30:21.060Z,59.08
2019-03-24T23:32:51.510Z,58.37
2019-03-24T23:35:22.042Z,59.01
2019-03-24T23:37:52.478Z,58.87
2019-03-24T23:40:22.951Z,59.61
2019-03-24T23:42:53.378Z,59.96
2019-03-24T23:45:23.833Z,59.64
2019-03-24T23:47:54.298Z,59.72
2019-03-24T23:50:24.888Z,59.28
2019-03-24T23:52:56.156Z,58.91
2019-03-24T23:55:26.756Z,59.57
2019-03-24T23:57:57.188Z,60.50
